sensor_id;sensor_type;location;lat;lon;timestamp;pressure;altitude;pressure_sealevel;temperature;humidity
70133;BME280;57495;49.922;7.966;2022-12-19T00:01:49;100988.78;;;-2.60;95.43
70133;BME280;57495;49.922;7.966;2022-12-19T00:03:53;100993.19;;;-2.62;95.78
70133;BME280;57495;49.922;7.966;2022-12-19T00:05:55;100999.22;;;-2.59;95.83
70133;BME280;57495;49.922;7.966;2022-12-19T00:07:56;100987.81;;;-2.58;95.74
70133;BME280;57495;49.922;7.966;2022-12-19T00:09:59;100985.16;;;-2.55;95.32
70133;BME280;57495;49.922;7.966;2022-12-19T00:12:00;100986.91;;;-2.55;95.36
70133;BME280;57495;49.922;7.966;2022-12-19T00:14:02;100990.44;;;-2.58;95.79
70133;BME280;57495;49.922;7.966;2022-12-19T00:16:05;100987.84;;;-2.59;95.84
70133;BME280;57495;49.922;7.966;2022-12-19T00:18:07;100979.28;;;-2.64;96.45
70133;BME280;57495;49.922;7.966;2022-12-19T00:20:09;100980.06;;;-2.61;96.17
70133;BME280;57495;49.922;7.966;2022-12-19T00:22:11;100966.00;;;-2.57;96.35
70133;BME280;57495;49.922;7.966;2022-12-19T00:24:13;100963.19;;;-2.49;96.39
70133;BME280;57495;49.922;7.966;2022-12-19T00:26:17;100957.97;;;-2.49;96.00
70133;BME280;57495;49.922;7.966;2022-12-19T00:28:19;100957.09;;;-2.49;95.56
70133;BME280;57495;49.922;7.966;2022-12-19T00:30:20;100953.66;;;-2.51;96.15
70133;BME280;57495;49.922;7.966;2022-12-19T00:32:22;100956.31;;;-2.53;96.53
70133;BME280;57495;49.922;7.966;2022-12-19T00:34:23;100949.31;;;-2.53;96.84
70133;BME280;57495;49.922;7.966;2022-12-19T00:36:27;100948.34;;;-2.48;96.98
70133;BME280;57495;49.922;7.966;2022-12-19T00:38:29;100943.09;;;-2.48;96.73
70133;BME280;57495;49.922;7.966;2022-12-19T00:40:30;100946.53;;;-2.46;96.62
70133;BME280;57495;49.922;7.966;2022-12-19T00:42:33;100943.88;;;-2.45;96.45
70133;BME280;57495;49.922;7.966;2022-12-19T00:44:35;100954.31;;;-2.42;96.19
70133;BME280;57495;49.922;7.966;2022-12-19T00:46:36;100942.97;;;-2.42;96.37
70133;BME280;57495;49.922;7.966;2022-12-19T00:48:38;100948.25;;;-2.44;96.18
70133;BME280;57495;49.922;7.966;2022-12-19T00:50:41;100949.06;;;-2.42;96.53
70133;BME280;57495;49.922;7.966;2022-12-19T00:52:42;100955.97;;;-2.39;97.08
70133;BME280;57495;49.922;7.966;2022-12-19T00:54:44;100952.47;;;-2.38;96.40
70133;BME280;57495;49.922;7.966;2022-12-19T00:56:46;100952.44;;;-2.37;96.11
70133;BME280;57495;49.922;7.966;2022-12-19T00:58:49;100951.53;;;-2.36;96.57
70133;BME280;57495;49.922;7.966;2022-12-19T01:00:51;100952.34;;;-2.34;96.54
70133;BME280;57495;49.922;7.966;2022-12-19T01:02:53;100952.38;;;-2.35;96.37
70133;BME280;57495;49.922;7.966;2022-12-19T01:04:54;100939.22;;;-2.32;96.83
70133;BME280;57495;49.922;7.966;2022-12-19T01:06:56;100932.28;;;-2.33;96.92
70133;BME280;57495;49.922;7.966;2022-12-19T01:08:58;100933.91;;;-2.29;96.99
70133;BME280;57495;49.922;7.966;2022-12-19T01:11:00;100939.97;;;-2.27;96.40
70133;BME280;57495;49.922;7.966;2022-12-19T01:13:01;100948.84;;;-2.33;95.78
70133;BME280;57495;49.922;7.966;2022-12-19T01:15:04;100949.63;;;-2.29;96.08
70133;BME280;57495;49.922;7.966;2022-12-19T01:17:05;100953.28;;;-2.36;96.34
70133;BME280;57495;49.922;7.966;2022-12-19T01:19:07;100956.88;;;-2.40;96.60
70133;BME280;57495;49.922;7.966;2022-12-19T01:21:10;100951.66;;;-2.40;97.17
70133;BME280;57495;49.922;7.966;2022-12-19T01:23:12;100954.16;;;-2.37;97.57
70133;BME280;57495;49.922;7.966;2022-12-19T01:25:14;100948.00;;;-2.33;97.27
70133;BME280;57495;49.922;7.966;2022-12-19T01:27:19;100946.19;;;-2.31;97.21
70133;BME280;57495;49.922;7.966;2022-12-19T01:29:21;100940.84;;;-2.28;96.93
70133;BME280;57495;49.922;7.966;2022-12-19T01:31:23;100934.72;;;-2.27;97.07
70133;BME280;57495;49.922;7.966;2022-12-19T01:33:25;100923.56;;;-2.35;96.92
70133;BME280;57495;49.922;7.966;2022-12-19T01:35:27;100920.34;;;-2.46;96.94
70133;BME280;57495;49.922;7.966;2022-12-19T01:37:28;100921.34;;;-2.50;96.88
70133;BME280;57495;49.922;7.966;2022-12-19T01:39:30;100927.38;;;-2.48;97.28
70133;BME280;57495;49.922;7.966;2022-12-19T01:41:31;100922.09;;;-2.45;96.86
70133;BME280;57495;49.922;7.966;2022-12-19T01:43:55;100920.22;;;-2.40;97.24
70133;BME280;57495;49.922;7.966;2022-12-19T01:45:58;100918.66;;;-2.47;97.09
70133;BME280;57495;49.922;7.966;2022-12-19T01:48:06;100927.28;;;-2.44;96.99
70133;BME280;57495;49.922;7.966;2022-12-19T01:50:14;100928.97;;;-2.41;97.22
70133;BME280;57495;49.922;7.966;2022-12-19T01:52:18;100934.41;;;-2.49;96.78
70133;BME280;57495;49.922;7.966;2022-12-19T01:54:21;100930.75;;;-2.43;96.72
70133;BME280;57495;49.922;7.966;2022-12-19T01:56:28;100925.53;;;-2.43;96.49
70133;BME280;57495;49.922;7.966;2022-12-19T01:58:32;100916.69;;;-2.39;96.49
70133;BME280;57495;49.922;7.966;2022-12-19T02:00:34;100912.34;;;-2.39;96.10
70133;BME280;57495;49.922;7.966;2022-12-19T02:02:37;100918.50;;;-2.41;96.23
70133;BME280;57495;49.922;7.966;2022-12-19T02:04:43;100925.50;;;-2.42;96.24
70133;BME280;57495;49.922;7.966;2022-12-19T02:06:46;100922.75;;;-2.37;95.99
70133;BME280;57495;49.922;7.966;2022-12-19T02:08:49;100915.94;;;-2.44;96.17
70133;BME280;57495;49.922;7.966;2022-12-19T02:10:51;100922.91;;;-2.43;96.41
70133;BME280;57495;49.922;7.966;2022-12-19T02:12:54;100925.47;;;-2.40;96.85
70133;BME280;57495;49.922;7.966;2022-12-19T02:14:56;100912.28;;;-2.37;96.81
70133;BME280;57495;49.922;7.966;2022-12-19T02:17:04;100914.03;;;-2.38;96.34
70133;BME280;57495;49.922;7.966;2022-12-19T02:19:25;100913.09;;;-2.35;96.18
70133;BME280;57495;49.922;7.966;2022-12-19T02:21:46;100897.31;;;-2.32;96.50
70133;BME280;57495;49.922;7.966;2022-12-19T02:24:24;100879.97;;;-2.36;96.84
70133;BME280;57495;49.922;7.966;2022-12-19T02:26:43;100886.88;;;-2.34;97.22
70133;BME280;57495;49.922;7.966;2022-12-19T02:29:01;100900.00;;;-2.35;96.64
70133;BME280;57495;49.922;7.966;2022-12-19T02:31:12;100903.50;;;-2.35;96.66
70133;BME280;57495;49.922;7.966;2022-12-19T02:33:24;100899.84;;;-2.29;96.34
70133;BME280;57495;49.922;7.966;2022-12-19T02:35:32;100891.97;;;-2.27;96.31
70133;BME280;57495;49.922;7.966;2022-12-19T02:37:41;100886.78;;;-2.30;96.27
70133;BME280;57495;49.922;7.966;2022-12-19T02:39:50;100895.53;;;-2.31;97.02
70133;BME280;57495;49.922;7.966;2022-12-19T02:41:57;100891.06;;;-2.26;97.26
70133;BME280;57495;49.922;7.966;2022-12-19T02:43:59;100891.84;;;-2.23;97.21
70133;BME280;57495;49.922;7.966;2022-12-19T02:46:02;100896.16;;;-2.20;97.23
70133;BME280;57495;49.922;7.966;2022-12-19T02:48:06;100890.00;;;-2.19;97.46
70133;BME280;57495;49.922;7.966;2022-12-19T02:50:09;100881.13;;;-2.14;96.70
70133;BME280;57495;49.922;7.966;2022-12-19T02:54:29;100879.41;;;-2.15;97.08
70133;BME280;57495;49.922;7.966;2022-12-19T02:56:39;100882.38;;;-2.28;97.60
70133;BME280;57495;49.922;7.966;2022-12-19T02:58:51;100885.69;;;-2.20;97.62
70133;BME280;57495;49.922;7.966;2022-12-19T03:01:02;100889.09;;;-2.18;97.37
70133;BME280;57495;49.922;7.966;2022-12-19T03:03:11;100888.16;;;-2.16;97.53
70133;BME280;57495;49.922;7.966;2022-12-19T03:05:27;100889.91;;;-2.15;97.35
70133;BME280;57495;49.922;7.966;2022-12-19T03:07:35;100887.19;;;-2.13;97.13
70133;BME280;57495;49.922;7.966;2022-12-19T03:09:42;100879.31;;;-2.11;96.59
70133;BME280;57495;49.922;7.966;2022-12-19T03:11:48;100882.66;;;-2.06;96.58
70133;BME280;57495;49.922;7.966;2022-12-19T03:13:53;100879.16;;;-2.05;96.48
70133;BME280;57495;49.922;7.966;2022-12-19T03:15:57;100877.44;;;-2.06;96.74
70133;BME280;57495;49.922;7.966;2022-12-19T03:18:00;100870.31;;;-2.01;96.98
70133;BME280;57495;49.922;7.966;2022-12-19T03:20:07;100873.81;;;-2.02;96.77
70133;BME280;57495;49.922;7.966;2022-12-19T03:22:10;100882.50;;;-2.00;96.90
70133;BME280;57495;49.922;7.966;2022-12-19T03:24:12;100895.53;;;-1.97;97.38
70133;BME280;57495;49.922;7.966;2022-12-19T03:26:17;100887.84;;;-2.03;97.23
70133;BME280;57495;49.922;7.966;2022-12-19T03:28:22;100882.50;;;-2.00;97.46
70133;BME280;57495;49.922;7.966;2022-12-19T03:30:27;100879.78;;;-1.96;97.39
70133;BME280;57495;49.922;7.966;2022-12-19T03:32:30;100885.81;;;-1.93;97.98
70133;BME280;57495;49.922;7.966;2022-12-19T03:34:35;100877.03;;;-1.92;98.08
70133;BME280;57495;49.922;7.966;2022-12-19T03:36:44;100870.94;;;-1.93;98.06
70133;BME280;57495;49.922;7.966;2022-12-19T03:38:47;100870.13;;;-1.95;97.96
70133;BME280;57495;49.922;7.966;2022-12-19T03:40:49;100877.94;;;-1.92;98.52
70133;BME280;57495;49.922;7.966;2022-12-19T03:42:56;100878.66;;;-1.87;98.44
70133;BME280;57495;49.922;7.966;2022-12-19T03:45:10;100873.44;;;-1.87;98.84
70133;BME280;57495;49.922;7.966;2022-12-19T03:47:16;100868.88;;;-1.82;98.74
70133;BME280;57495;49.922;7.966;2022-12-19T03:49:19;100871.44;;;-1.79;98.85
70133;BME280;57495;49.922;7.966;2022-12-19T03:51:27;100883.00;;;-1.86;100.00
70133;BME280;57495;49.922;7.966;2022-12-19T03:53:39;100877.63;;;-1.81;99.92
70133;BME280;57495;49.922;7.966;2022-12-19T03:55:45;100874.94;;;-1.80;99.79
70133;BME280;57495;49.922;7.966;2022-12-19T03:57:51;100873.09;;;-1.76;98.59
70133;BME280;57495;49.922;7.966;2022-12-19T03:59:59;100872.25;;;-1.77;97.93
70133;BME280;57495;49.922;7.966;2022-12-19T04:02:02;100876.59;;;-1.76;98.90
70133;BME280;57495;49.922;7.966;2022-12-19T04:04:05;100870.44;;;-1.75;98.72
70133;BME280;57495;49.922;7.966;2022-12-19T04:06:08;100873.88;;;-1.72;98.80
70133;BME280;57495;49.922;7.966;2022-12-19T04:08:10;100861.66;;;-1.72;98.92
70133;BME280;57495;49.922;7.966;2022-12-19T04:10:16;100859.84;;;-1.70;99.27
70133;BME280;57495;49.922;7.966;2022-12-19T04:12:20;100856.25;;;-1.67;99.09
70133;BME280;57495;49.922;7.966;2022-12-19T04:14:28;100860.53;;;-1.65;98.80
70133;BME280;57495;49.922;7.966;2022-12-19T04:16:35;100850.00;;;-1.63;98.57
70133;BME280;57495;49.922;7.966;2022-12-19T04:18:40;100848.19;;;-1.61;98.77
70133;BME280;57495;49.922;7.966;2022-12-19T04:20:49;100843.91;;;-1.64;98.28
70133;BME280;57495;49.922;7.966;2022-12-19T04:22:58;100840.41;;;-1.63;98.22
70133;BME280;57495;49.922;7.966;2022-12-19T04:25:02;100842.88;;;-1.58;98.10
70133;BME280;57495;49.922;7.966;2022-12-19T04:27:09;100839.44;;;-1.60;98.05
70133;BME280;57495;49.922;7.966;2022-12-19T04:29:13;100843.81;;;-1.59;98.31
70133;BME280;57495;49.922;7.966;2022-12-19T04:31:17;100843.84;;;-1.61;98.51
70133;BME280;57495;49.922;7.966;2022-12-19T04:33:20;100837.72;;;-1.61;98.57
70133;BME280;57495;49.922;7.966;2022-12-19T04:35:21;100833.38;;;-1.62;99.06
70133;BME280;57495;49.922;7.966;2022-12-19T04:37:22;100842.06;;;-1.60;98.82
70133;BME280;57495;49.922;7.966;2022-12-19T04:39:24;100835.09;;;-1.61;98.90
70133;BME280;57495;49.922;7.966;2022-12-19T04:41:26;100837.72;;;-1.61;99.00
70133;BME280;57495;49.922;7.966;2022-12-19T04:43:28;100840.28;;;-1.60;99.05
70133;BME280;57495;49.922;7.966;2022-12-19T04:45:30;100833.25;;;-1.58;99.24
70133;BME280;57495;49.922;7.966;2022-12-19T04:47:31;100835.81;;;-1.56;99.21
70133;BME280;57495;49.922;7.966;2022-12-19T04:49:33;100841.00;;;-1.53;99.07
70133;BME280;57495;49.922;7.966;2022-12-19T04:51:34;100843.56;;;-1.51;99.35
70133;BME280;57495;49.922;7.966;2022-12-19T04:53:36;100842.69;;;-1.52;99.34
70133;BME280;57495;49.922;7.966;2022-12-19T04:55:37;100832.19;;;-1.52;99.69
70133;BME280;57495;49.922;7.966;2022-12-19T04:57:40;100827.88;;;-1.53;99.78
70133;BME280;57495;49.922;7.966;2022-12-19T04:59:43;100827.88;;;-1.53;99.58
70133;BME280;57495;49.922;7.966;2022-12-19T05:01:44;100825.16;;;-1.50;99.17
70133;BME280;57495;49.922;7.966;2022-12-19T05:03:46;100821.63;;;-1.49;98.77
70133;BME280;57495;49.922;7.966;2022-12-19T05:05:48;100819.81;;;-1.47;98.57
70133;BME280;57495;49.922;7.966;2022-12-19T05:07:49;100823.44;;;-1.51;98.91
70133;BME280;57495;49.922;7.966;2022-12-19T05:09:51;100819.97;;;-1.51;99.41
70133;BME280;57495;49.922;7.966;2022-12-19T05:11:52;100809.47;;;-1.51;99.06
70133;BME280;57495;49.922;7.966;2022-12-19T05:13:54;100812.88;;;-1.48;99.14
70133;BME280;57495;49.922;7.966;2022-12-19T05:15:59;100810.28;;;-1.49;99.31
70133;BME280;57495;49.922;7.966;2022-12-19T05:18:01;100803.28;;;-1.49;99.73
70133;BME280;57495;49.922;7.966;2022-12-19T05:20:04;100805.13;;;-1.52;100.00
70133;BME280;57495;49.922;7.966;2022-12-19T05:22:06;100808.56;;;-1.50;100.00
70133;BME280;57495;49.922;7.966;2022-12-19T05:24:08;100805.97;;;-1.52;99.79
70133;BME280;57495;49.922;7.966;2022-12-19T05:26:10;100806.09;;;-1.55;99.91
70133;BME280;57495;49.922;7.966;2022-12-19T05:28:11;100806.09;;;-1.55;100.00
70133;BME280;57495;49.922;7.966;2022-12-19T05:30:13;100810.53;;;-1.57;100.00
70133;BME280;57495;49.922;7.966;2022-12-19T05:32:16;100817.75;;;-1.65;100.00
70133;BME280;57495;49.922;7.966;2022-12-19T05:34:17;100813.41;;;-1.66;100.00
70133;BME280;57495;49.922;7.966;2022-12-19T05:36:19;100803.59;;;-1.60;100.00
70133;BME280;57495;49.922;7.966;2022-12-19T05:38:21;100806.94;;;-1.54;100.00
70133;BME280;57495;49.922;7.966;2022-12-19T05:40:23;100809.44;;;-1.50;100.00
70133;BME280;57495;49.922;7.966;2022-12-19T05:42:24;100800.59;;;-1.47;100.00
70133;BME280;57495;49.922;7.966;2022-12-19T05:44:26;100810.94;;;-1.43;99.81
70133;BME280;57495;49.922;7.966;2022-12-19T05:46:27;100810.09;;;-1.43;99.95
70133;BME280;57495;49.922;7.966;2022-12-19T05:48:30;100806.63;;;-1.44;100.00
70133;BME280;57495;49.922;7.966;2022-12-19T05:50:32;100810.28;;;-1.49;100.00
70133;BME280;57495;49.922;7.966;2022-12-19T05:52:33;100813.78;;;-1.50;100.00
70133;BME280;57495;49.922;7.966;2022-12-19T05:54:35;100818.19;;;-1.51;100.00
70133;BME280;57495;49.922;7.966;2022-12-19T05:56:36;100816.47;;;-1.52;100.00
70133;BME280;57495;49.922;7.966;2022-12-19T05:58:39;100826.03;;;-1.49;100.00
70133;BME280;57495;49.922;7.966;2022-12-19T06:00:40;100822.41;;;-1.45;100.00
70133;BME280;57495;49.922;7.966;2022-12-19T06:02:42;100813.69;;;-1.46;100.00
70133;BME280;57495;49.922;7.966;2022-12-19T06:04:45;100821.44;;;-1.43;100.00
70133;BME280;57495;49.922;7.966;2022-12-19T06:06:46;100828.41;;;-1.42;100.00
70133;BME280;57495;49.922;7.966;2022-12-19T06:08:51;100824.22;;;-1.47;100.00
70133;BME280;57495;49.922;7.966;2022-12-19T06:10:52;100825.88;;;-1.45;100.00
70133;BME280;57495;49.922;7.966;2022-12-19T06:12:54;100826.94;;;-1.52;100.00
70133;BME280;57495;49.922;7.966;2022-12-19T06:14:55;100826.78;;;-1.46;100.00
70133;BME280;57495;49.922;7.966;2022-12-19T06:16:57;100835.38;;;-1.41;100.00
70133;BME280;57495;49.922;7.966;2022-12-19T06:18:58;100843.13;;;-1.38;100.00
70133;BME280;57495;49.922;7.966;2022-12-19T06:21:03;100844.09;;;-1.40;100.00
70133;BME280;57495;49.922;7.966;2022-12-19T06:23:05;100843.09;;;-1.36;100.00
70133;BME280;57495;49.922;7.966;2022-12-19T06:25:07;100842.25;;;-1.37;100.00
70133;BME280;57495;49.922;7.966;2022-12-19T06:27:09;100823.16;;;-1.42;100.00
70133;BME280;57495;49.922;7.966;2022-12-19T06:29:10;100813.47;;;-1.40;100.00
70133;BME280;57495;49.922;7.966;2022-12-19T06:31:12;100815.34;;;-1.43;100.00
70133;BME280;57495;49.922;7.966;2022-12-19T06:33:14;100831.84;;;-1.40;100.00
70133;BME280;57495;49.922;7.966;2022-12-19T06:35:15;100825.06;;;-1.47;100.00
70133;BME280;57495;49.922;7.966;2022-12-19T06:37:18;100821.31;;;-1.38;100.00
70133;BME280;57495;49.922;7.966;2022-12-19T06:39:19;100818.72;;;-1.40;100.00
70133;BME280;57495;49.922;7.966;2022-12-19T06:41:22;100822.06;;;-1.34;100.00
70133;BME280;57495;49.922;7.966;2022-12-19T06:43:41;100821.16;;;-1.33;100.00
70133;BME280;57495;49.922;7.966;2022-12-19T06:45:43;100820.47;;;-1.39;100.00
70133;BME280;57495;49.922;7.966;2022-12-19T06:47:47;100822.84;;;-1.31;100.00
70133;BME280;57495;49.922;7.966;2022-12-19T06:49:48;100816.75;;;-1.31;100.00
70133;BME280;57495;49.922;7.966;2022-12-19T06:51:49;100806.19;;;-1.30;100.00
70133;BME280;57495;49.922;7.966;2022-12-19T06:53:52;100806.94;;;-1.26;100.00
70133;BME280;57495;49.922;7.966;2022-12-19T06:55:57;100813.06;;;-1.26;100.00
70133;BME280;57495;49.922;7.966;2022-12-19T06:57:59;100818.31;;;-1.26;100.00
70133;BME280;57495;49.922;7.966;2022-12-19T07:00:01;100807.69;;;-1.23;100.00
70133;BME280;57495;49.922;7.966;2022-12-19T07:02:06;100806.75;;;-1.20;100.00
70133;BME280;57495;49.922;7.966;2022-12-19T07:04:14;100801.53;;;-1.20;100.00
70133;BME280;57495;49.922;7.966;2022-12-19T07:06:17;100813.72;;;-1.19;100.00
70133;BME280;57495;49.922;7.966;2022-12-19T07:08:18;100807.47;;;-1.15;100.00
70133;BME280;57495;49.922;7.966;2022-12-19T07:10:21;100815.25;;;-1.12;100.00
70133;BME280;57495;49.922;7.966;2022-12-19T07:12:22;100810.84;;;-1.11;100.00
70133;BME280;57495;49.922;7.966;2022-12-19T07:14:24;100802.22;;;-1.15;100.00
70133;BME280;57495;49.922;7.966;2022-12-19T07:16:26;100794.19;;;-1.10;100.00
70133;BME280;57495;49.922;7.966;2022-12-19T07:18:29;100800.31;;;-1.10;100.00
70133;BME280;57495;49.922;7.966;2022-12-19T07:20:35;100796.78;;;-1.09;100.00
70133;BME280;57495;49.922;7.966;2022-12-19T07:22:38;100796.81;;;-1.10;100.00
70133;BME280;57495;49.922;7.966;2022-12-19T07:24:39;100804.78;;;-1.13;100.00
70133;BME280;57495;49.922;7.966;2022-12-19T07:26:43;100813.50;;;-1.13;100.00
70133;BME280;57495;49.922;7.966;2022-12-19T07:28:45;100817.88;;;-1.12;100.00
70133;BME280;57495;49.922;7.966;2022-12-19T07:30:46;100817.81;;;-1.10;100.00
70133;BME280;57495;49.922;7.966;2022-12-19T07:32:48;100819.44;;;-1.06;100.00
70133;BME280;57495;49.922;7.966;2022-12-19T07:34:49;100804.44;;;-1.03;100.00
70133;BME280;57495;49.922;7.966;2022-12-19T07:36:51;100799.28;;;-1.06;100.00
70133;BME280;57495;49.922;7.966;2022-12-19T07:38:52;100799.28;;;-1.06;100.00
70133;BME280;57495;49.922;7.966;2022-12-19T07:40:54;100793.09;;;-1.03;100.00
70133;BME280;57495;49.922;7.966;2022-12-19T07:42:59;100803.47;;;-1.00;100.00
70133;BME280;57495;49.922;7.966;2022-12-19T07:45:01;100820.88;;;-0.96;100.00
70133;BME280;57495;49.922;7.966;2022-12-19T07:47:02;100819.09;;;-0.95;100.00
70133;BME280;57495;49.922;7.966;2022-12-19T07:49:04;100799.75;;;-0.93;100.00
70133;BME280;57495;49.922;7.966;2022-12-19T07:51:05;100803.25;;;-0.92;100.00
70133;BME280;57495;49.922;7.966;2022-12-19T07:53:07;100801.47;;;-0.92;100.00
70133;BME280;57495;49.922;7.966;2022-12-19T07:55:09;100804.97;;;-0.91;100.00
70133;BME280;57495;49.922;7.966;2022-12-19T07:57:10;100816.25;;;-0.89;100.00
70133;BME280;57495;49.922;7.966;2022-12-19T07:59:13;100812.75;;;-0.88;100.00
70133;BME280;57495;49.922;7.966;2022-12-19T08:01:15;100822.22;;;-0.84;100.00
70133;BME280;57495;49.922;7.966;2022-12-19T08:03:16;100819.59;;;-0.84;100.00
70133;BME280;57495;49.922;7.966;2022-12-19T08:05:19;100821.34;;;-0.83;100.00
70133;BME280;57495;49.922;7.966;2022-12-19T08:07:20;100821.22;;;-0.80;100.00
70133;BME280;57495;49.922;7.966;2022-12-19T08:09:22;100810.13;;;-0.88;100.00
70133;BME280;57495;49.922;7.966;2022-12-19T08:11:26;100813.28;;;-0.79;100.00
70133;BME280;57495;49.922;7.966;2022-12-19T08:13:29;100801.81;;;-0.76;100.00
70133;BME280;57495;49.922;7.966;2022-12-19T08:15:32;100805.28;;;-0.74;100.00
70133;BME280;57495;49.922;7.966;2022-12-19T08:17:33;100813.06;;;-0.72;100.00
70133;BME280;57495;49.922;7.966;2022-12-19T08:19:35;100813.97;;;-0.72;100.00
70133;BME280;57495;49.922;7.966;2022-12-19T08:21:36;100810.34;;;-0.69;100.00
70133;BME280;57495;49.922;7.966;2022-12-19T08:23:38;100805.09;;;-0.69;100.00
70133;BME280;57495;49.922;7.966;2022-12-19T08:25:39;100806.75;;;-0.67;100.00
70133;BME280;57495;49.922;7.966;2022-12-19T08:27:41;100805.06;;;-0.68;100.00
70133;BME280;57495;49.922;7.966;2022-12-19T08:29:45;100795.41;;;-0.67;100.00
70133;BME280;57495;49.922;7.966;2022-12-19T08:31:48;100810.25;;;-0.66;100.00
70133;BME280;57495;49.922;7.966;2022-12-19T08:33:51;100813.66;;;-0.63;100.00
70133;BME280;57495;49.922;7.966;2022-12-19T08:35:52;100806.56;;;-0.61;100.00
70133;BME280;57495;49.922;7.966;2022-12-19T08:37:54;100801.19;;;-0.57;100.00
70133;BME280;57495;49.922;7.966;2022-12-19T08:39:55;100801.09;;;-0.54;100.00
70133;BME280;57495;49.922;7.966;2022-12-19T08:41:56;100798.47;;;-0.54;100.00
70133;BME280;57495;49.922;7.966;2022-12-19T08:43:58;100809.72;;;-0.51;100.00
70133;BME280;57495;49.922;7.966;2022-12-19T08:45:59;100801.72;;;-0.46;100.00
70133;BME280;57495;49.922;7.966;2022-12-19T08:48:03;100795.56;;;-0.47;100.00
70133;BME280;57495;49.922;7.966;2022-12-19T08:50:05;100795.53;;;-0.45;100.00
70133;BME280;57495;49.922;7.966;2022-12-19T08:52:07;100798.09;;;-0.44;100.00
70133;BME280;57495;49.922;7.966;2022-12-19T08:54:08;100780.41;;;-0.38;100.00
70133;BME280;57495;49.922;7.966;2022-12-19T08:56:13;100772.50;;;-0.37;100.00
70133;BME280;57495;49.922;7.966;2022-12-19T08:58:15;100779.44;;;-0.36;100.00
70133;BME280;57495;49.922;7.966;2022-12-19T09:00:16;100776.72;;;-0.33;100.00
70133;BME280;57495;49.922;7.966;2022-12-19T09:02:18;100786.44;;;-0.35;100.00
70133;BME280;57495;49.922;7.966;2022-12-19T09:04:21;100788.13;;;-0.34;100.00
70133;BME280;57495;49.922;7.966;2022-12-19T09:06:23;100788.88;;;-0.30;100.00
70133;BME280;57495;49.922;7.966;2022-12-19T09:08:25;100784.66;;;-0.34;100.00
70133;BME280;57495;49.922;7.966;2022-12-19T09:10:28;100788.13;;;-0.34;100.00
70133;BME280;57495;49.922;7.966;2022-12-19T09:12:30;100796.72;;;-0.29;100.00
70133;BME280;57495;49.922;7.966;2022-12-19T09:14:32;100795.88;;;-0.29;100.00
70133;BME280;57495;49.922;7.966;2022-12-19T09:16:34;100789.56;;;-0.25;100.00
70133;BME280;57495;49.922;7.966;2022-12-19T09:18:36;100795.69;;;-0.25;100.00
70133;BME280;57495;49.922;7.966;2022-12-19T09:20:39;100792.16;;;-0.24;100.00
70133;BME280;57495;49.922;7.966;2022-12-19T09:22:41;100792.84;;;-0.18;100.00
70133;BME280;57495;49.922;7.966;2022-12-19T09:24:42;100789.19;;;-0.14;100.00
70133;BME280;57495;49.922;7.966;2022-12-19T09:26:44;100787.38;;;-0.12;100.00
70133;BME280;57495;49.922;7.966;2022-12-19T09:28:46;100789.91;;;-0.09;100.00
70133;BME280;57495;49.922;7.966;2022-12-19T09:30:54;100793.31;;;-0.07;100.00
70133;BME280;57495;49.922;7.966;2022-12-19T09:32:56;100789.75;;;-0.06;100.00
70133;BME280;57495;49.922;7.966;2022-12-19T09:34:57;100781.13;;;-0.10;100.00
70133;BME280;57495;49.922;7.966;2022-12-19T09:37:00;100790.69;;;-0.07;100.00
70133;BME280;57495;49.922;7.966;2022-12-19T09:39:02;100797.78;;;-0.09;100.00
70133;BME280;57495;49.922;7.966;2022-12-19T09:41:22;100798.69;;;-0.10;100.00
70133;BME280;57495;49.922;7.966;2022-12-19T09:43:39;100794.22;;;-0.08;100.00
70133;BME280;57495;49.922;7.966;2022-12-19T09:45:51;100795.03;;;-0.06;100.00
70133;BME280;57495;49.922;7.966;2022-12-19T09:47:55;100796.84;;;-0.08;100.00
70133;BME280;57495;49.922;7.966;2022-12-19T09:49:59;100787.09;;;-0.05;100.00
70133;BME280;57495;49.922;7.966;2022-12-19T09:52:06;100788.06;;;-0.07;100.00
70133;BME280;57495;49.922;7.966;2022-12-19T09:54:15;100791.50;;;-0.05;100.00
70133;BME280;57495;49.922;7.966;2022-12-19T09:56:18;100773.28;;;-0.11;100.00
70133;BME280;57495;49.922;7.966;2022-12-19T09:58:30;100771.59;;;-0.12;100.00
70133;BME280;57495;49.922;7.966;2022-12-19T10:00:38;100762.78;;;-0.11;100.00
70133;BME280;57495;49.922;7.966;2022-12-19T10:02:46;100769.75;;;-0.10;100.00
70133;BME280;57495;49.922;7.966;2022-12-19T10:04:52;100773.13;;;-0.07;100.00
70133;BME280;57495;49.922;7.966;2022-12-19T10:06:56;100775.91;;;-0.11;100.00
70133;BME280;57495;49.922;7.966;2022-12-19T10:08:59;100778.44;;;-0.08;100.00
70133;BME280;57495;49.922;7.966;2022-12-19T10:11:07;100781.81;;;-0.05;100.00
70133;BME280;57495;49.922;7.966;2022-12-19T10:13:16;100774.84;;;-0.06;100.00
70133;BME280;57495;49.922;7.966;2022-12-19T10:15:28;100760.22;;;-0.13;100.00
70133;BME280;57495;49.922;7.966;2022-12-19T10:17:51;100759.00;;;-0.04;100.00
70133;BME280;57495;49.922;7.966;2022-12-19T10:20:07;100756.38;;;-0.04;100.00
70133;BME280;57495;49.922;7.966;2022-12-19T10:22:26;100755.47;;;-0.03;100.00
70133;BME280;57495;49.922;7.966;2022-12-19T10:24:47;100758.00;;;0.00;100.00
70133;BME280;57495;49.922;7.966;2022-12-19T10:26:53;100760.63;;;0.00;100.00
70133;BME280;57495;49.922;7.966;2022-12-19T10:29:14;100750.97;;;0.01;100.00
70133;BME280;57495;49.922;7.966;2022-12-19T10:31:22;100747.53;;;-0.02;100.00
70133;BME280;57495;49.922;7.966;2022-12-19T10:33:33;100751.72;;;0.04;100.00
70133;BME280;57495;49.922;7.966;2022-12-19T10:35:40;100756.97;;;0.04;100.00
70133;BME280;57495;49.922;7.966;2022-12-19T10:37:46;100751.13;;;0.19;100.00
70133;BME280;57495;49.922;7.966;2022-12-19T10:39:58;100743.59;;;0.10;100.00
70133;BME280;57495;49.922;7.966;2022-12-19T10:42:11;100735.66;;;0.12;100.00
70133;BME280;57495;49.922;7.966;2022-12-19T10:44:17;100741.66;;;0.15;100.00
70133;BME280;57495;49.922;7.966;2022-12-19T10:46:23;100738.28;;;0.12;100.00
70133;BME280;57495;49.922;7.966;2022-12-19T10:48:29;100732.03;;;0.14;100.00